createdAt,value
2018-12-24T00:02:23.943Z,9.10
2018-12-24T00:05:11.914Z,9.93
2018-12-24T00:07:59.859Z,10.27
2018-12-24T00:10:47.844Z,10.67
2018-12-24T00:13:35.809Z,9.80
2018-12-24T00:16:23.807Z,9.27
2018-12-24T00:19:23.543Z,9.33
2018-12-24T00:25:08.351Z,9.73
2018-12-24T00:27:56.319Z,8.00
2018-12-24T00:30:44.260Z,7.63
2018-12-24T00:33:32.153Z,6.67
2018-12-24T00:36:12.903Z,4.90
2018-12-24T00:38:53.878Z,4.50
2018-12-24T00:41:34.955Z,5.70
2018-12-24T00:44:15.779Z,6.37
2018-12-24T00:46:56.455Z,6.37
2018-12-24T00:49:37.581Z,6.50
2018-12-24T00:52:18.891Z,6.40
2018-12-24T00:54:59.728Z,6.60
2018-12-24T00:57:41.055Z,7.57
2018-12-24T01:00:22.247Z,7.97
2018-12-24T01:03:03.954Z,7.17
2018-12-24T01:05:44.355Z,7.43
2018-12-24T01:08:25.479Z,8.27
2018-12-24T01:11:05.971Z,8.33
2018-12-24T01:13:46.478Z,8.37
2018-12-24T01:16:27.311Z,8.87
2018-12-24T01:19:08.461Z,7.90
2018-12-24T01:21:49.259Z,10.37
2018-12-24T01:24:30.340Z,9.90
2018-12-24T01:27:10.997Z,10.77
2018-12-24T01:29:50.039Z,12.20
2018-12-24T01:32:37.965Z,14.77
2018-12-24T01:35:18.614Z,14.63
2018-12-24T01:37:59.381Z,14.60
2018-12-24T01:40:40.749Z,14.20
2018-12-24T01:43:21.767Z,14.33
2018-12-24T01:46:02.636Z,13.47
2018-12-24T01:48:43.900Z,14.33
2018-12-24T01:51:25.300Z,14.30
2018-12-24T01:54:05.915Z,14.60
2018-12-24T01:56:46.594Z,15.83
2018-12-24T01:59:27.347Z,18.30
2018-12-24T02:02:08.529Z,16.43
2018-12-24T02:04:49.393Z,15.77
2018-12-24T02:07:30.256Z,16.87
2018-12-24T02:10:10.945Z,16.73
2018-12-24T02:12:52.201Z,16.87
2018-12-24T02:15:33.420Z,15.33
2018-12-24T02:18:14.002Z,16.07
2018-12-24T02:20:55.248Z,14.97
2018-12-24T02:23:36.727Z,16.43
2018-12-24T02:26:17.748Z,15.60
2018-12-24T02:28:58.637Z,15.13
2018-12-24T02:31:37.512Z,14.60
2018-12-24T02:34:25.469Z,13.33
2018-12-24T02:37:13.442Z,13.30
2018-12-24T02:40:01.473Z,13.87
2018-12-24T02:43:03.498Z,13.77
2018-12-24T02:45:39.143Z,15.37
2018-12-24T02:48:27.148Z,12.50
2018-12-24T02:51:16.937Z,12.27
2018-12-24T02:54:06.488Z,12.60
2018-12-24T02:56:54.453Z,13.63
2018-12-24T02:59:42.433Z,13.23
2018-12-24T03:02:30.394Z,10.50
2018-12-24T03:05:18.395Z,10.40
2018-12-24T03:08:06.413Z,10.03
2018-12-24T03:10:54.339Z,10.27
2018-12-24T03:13:23.041Z,10.33
2018-12-24T03:16:10.998Z,11.23
2018-12-24T03:18:59.080Z,11.43
2018-12-24T03:21:47.098Z,10.00
2018-12-24T03:24:35.056Z,9.97
2018-12-24T03:27:23.057Z,10.07
2018-12-24T03:30:11.066Z,7.50
2018-12-24T03:32:59.093Z,8.43
2018-12-24T03:35:47.086Z,8.83
2018-12-24T03:38:27.574Z,8.27
2018-12-24T03:41:07.953Z,8.63
2018-12-24T03:43:48.758Z,7.70
2018-12-24T03:46:28.723Z,9.38
2018-12-24T03:49:16.650Z,6.13
2018-12-24T03:52:04.679Z,7.53
2018-12-24T03:54:52.757Z,5.60
2018-12-24T03:57:42.346Z,7.07
2018-12-24T04:00:30.359Z,6.43
2018-12-24T04:03:18.406Z,6.93
2018-12-24T04:06:06.389Z,5.40
2018-12-24T04:08:54.347Z,5.70
2018-12-24T04:11:42.353Z,6.50
2018-12-24T04:14:30.314Z,6.23
2018-12-24T04:17:18.302Z,5.07
2018-12-24T04:20:06.260Z,5.57
2018-12-24T04:22:54.265Z,5.37
2018-12-24T04:25:42.273Z,5.13
2018-12-24T04:28:30.251Z,5.37
2018-12-24T04:31:18.194Z,6.23
2018-12-24T04:34:06.172Z,6.73
2018-12-24T04:36:47.178Z,6.77
2018-12-24T04:39:28.209Z,6.53
2018-12-24T04:42:08.918Z,9.10
2018-12-24T04:44:49.924Z,4.77
2018-12-24T04:47:30.974Z,4.90
2018-12-24T04:49:59.559Z,5.92
2018-12-24T04:52:47.549Z,5.97
2018-12-24T04:55:54.842Z,5.27
2018-12-24T04:58:42.823Z,6.37
2018-12-24T05:01:30.778Z,6.07
2018-12-24T05:04:18.726Z,6.17
2018-12-24T05:07:06.731Z,6.13
2018-12-24T05:09:54.734Z,5.20
2018-12-24T05:12:42.675Z,5.57
2018-12-24T05:15:30.674Z,5.80
2018-12-24T05:18:20.304Z,5.33
2018-12-24T05:21:08.266Z,5.83
2018-12-24T05:23:56.273Z,5.53
2018-12-24T05:26:44.316Z,5.50
2018-12-24T05:29:32.292Z,7.10
2018-12-24T05:32:20.240Z,5.70
2018-12-24T05:35:08.255Z,5.63
2018-12-24T05:37:49.387Z,6.63
2018-12-24T05:40:29.964Z,5.10
2018-12-24T05:43:11.250Z,4.93
2018-12-24T05:45:52.024Z,5.63
2018-12-24T05:48:32.630Z,5.73
2018-12-24T05:51:13.927Z,5.33
2018-12-24T05:53:54.926Z,5.20
2018-12-24T05:56:35.887Z,5.23
2018-12-24T05:59:17.070Z,5.63
2018-12-24T06:01:58.332Z,6.13
2018-12-24T06:04:39.585Z,5.77
2018-12-24T06:07:20.200Z,5.20
2018-12-24T06:10:01.011Z,5.80
2018-12-24T06:12:41.769Z,4.90
2018-12-24T06:15:22.355Z,5.43
2018-12-24T06:18:02.979Z,5.50
2018-12-24T06:20:44.234Z,5.23
2018-12-24T06:23:24.967Z,4.77
2018-12-24T06:26:06.343Z,4.47
2018-12-24T06:28:49.118Z,4.83
2018-12-24T06:31:29.878Z,5.23
2018-12-24T06:34:10.821Z,4.63
2018-12-24T06:36:52.193Z,5.13
2018-12-24T06:39:33.232Z,5.10
2018-12-24T06:42:13.807Z,5.70
2018-12-24T06:44:54.439Z,5.67
2018-12-24T06:47:35.485Z,5.97
2018-12-24T06:50:16.312Z,6.10
2018-12-24T06:52:56.903Z,5.73
2018-12-24T06:55:37.763Z,5.90
2018-12-24T06:58:18.509Z,5.87
2018-12-24T07:00:59.289Z,7.33
2018-12-24T07:03:40.270Z,6.97
2018-12-24T07:06:21.157Z,6.70
2018-12-24T07:09:02.106Z,5.87
2018-12-24T07:11:43.003Z,7.80
2018-12-24T07:14:23.491Z,8.83
2018-12-24T07:17:04.179Z,8.63
2018-12-24T07:19:45.427Z,8.80
2018-12-24T07:22:26.651Z,8.50
2018-12-24T07:25:07.245Z,8.73
2018-12-24T07:27:47.819Z,7.73
2018-12-24T07:30:28.840Z,7.60
2018-12-24T07:33:09.755Z,8.17
2018-12-24T07:35:50.948Z,7.90
2018-12-24T07:38:31.685Z,8.40
2018-12-24T07:41:10.715Z,8.77
2018-12-24T07:43:58.637Z,8.03
2018-12-24T07:46:46.653Z,7.73
2018-12-24T07:49:34.562Z,8.00
2018-12-24T07:52:22.585Z,9.17
2018-12-24T07:55:10.597Z,9.47
2018-12-24T07:57:58.626Z,9.67
2018-12-24T08:00:46.682Z,13.20
2018-12-24T08:06:29.429Z,11.60
2018-12-24T08:09:17.364Z,12.53
2018-12-24T08:12:05.350Z,13.77
2018-12-24T08:14:53.347Z,13.40
2018-12-24T08:17:42.171Z,12.87
2018-12-24T08:20:30.197Z,14.57
2018-12-24T08:23:18.178Z,10.90
2018-12-24T08:26:06.146Z,11.00
2018-12-24T08:28:54.153Z,13.23
2018-12-24T08:31:42.162Z,12.20
2018-12-24T08:34:30.067Z,13.80
2018-12-24T08:37:18.024Z,10.90
2018-12-24T08:40:06.012Z,12.03
2018-12-24T08:45:47.373Z,13.33
2018-12-24T08:48:37.032Z,12.40
2018-12-24T08:51:25.056Z,12.10
2018-12-24T08:54:13.042Z,13.70
2018-12-24T08:57:01.069Z,12.63
2018-12-24T08:59:49.071Z,12.13
2018-12-24T09:02:37.105Z,13.47
2018-12-24T09:05:25.083Z,10.60
2018-12-24T09:08:13.033Z,9.90
2018-12-24T09:11:01.041Z,9.97
2018-12-24T09:13:49.093Z,10.47
2018-12-24T09:16:37.106Z,11.03
2018-12-24T09:19:25.260Z,10.00
2018-12-24T09:22:13.186Z,9.97
2018-12-24T09:25:01.234Z,9.60
2018-12-24T09:27:49.252Z,10.00
2018-12-24T09:30:37.423Z,10.03
2018-12-24T09:33:25.951Z,11.37
2018-12-24T09:36:13.901Z,9.97
2018-12-24T09:38:54.520Z,8.80
2018-12-24T09:41:35.727Z,9.27
2018-12-24T09:44:16.447Z,8.70
2018-12-24T09:46:57.697Z,9.37
2018-12-24T09:49:38.728Z,8.90
2018-12-24T09:52:17.965Z,8.40
2018-12-24T09:55:05.904Z,8.70
2018-12-24T10:00:47.791Z,8.57
2018-12-24T10:03:35.819Z,8.43
2018-12-24T10:06:23.795Z,9.27
2018-12-24T10:09:11.732Z,9.53
2018-12-24T10:11:59.641Z,8.40
2018-12-24T10:14:47.589Z,8.33
2018-12-24T10:17:35.600Z,8.83
2018-12-24T10:20:23.635Z,10.07
2018-12-24T10:23:11.655Z,9.07
2018-12-24T10:25:59.683Z,9.50
2018-12-24T10:28:47.729Z,7.80
2018-12-24T10:31:35.770Z,7.73
2018-12-24T10:34:23.747Z,8.37
2018-12-24T10:37:04.779Z,6.70
2018-12-24T10:39:45.841Z,7.07
2018-12-24T10:42:26.617Z,6.43
2018-12-24T10:45:16.234Z,6.20
2018-12-24T10:47:48.431Z,6.27
2018-12-24T10:50:36.382Z,5.73
2018-12-24T10:53:24.413Z,6.47
2018-12-24T10:56:12.389Z,6.50
2018-12-24T10:59:00.403Z,9.10
2018-12-24T11:01:48.319Z,6.67
2018-12-24T11:04:36.363Z,9.77
2018-12-24T11:07:24.365Z,7.57
2018-12-24T11:10:12.399Z,12.70
2018-12-24T11:13:00.395Z,8.10
2018-12-24T11:15:48.476Z,12.53
2018-12-24T11:18:36.476Z,16.90
2018-12-24T11:21:24.536Z,6.23
2018-12-24T11:24:12.509Z,7.43
2018-12-24T11:26:53.772Z,5.63
2018-12-24T11:29:34.921Z,5.70
2018-12-24T11:32:16.221Z,7.40
2018-12-24T11:34:56.996Z,7.13
2018-12-24T11:37:36.023Z,6.30
2018-12-24T11:40:23.945Z,4.73
2018-12-24T11:43:11.943Z,5.30
2018-12-24T11:45:59.871Z,5.27
2018-12-24T11:48:47.882Z,4.37
2018-12-24T11:51:35.810Z,5.30
2018-12-24T11:54:23.852Z,6.43
2018-12-24T11:57:11.862Z,5.83
2018-12-24T11:59:59.897Z,5.27
2018-12-24T12:02:47.936Z,4.87
2018-12-24T12:05:35.886Z,5.50
2018-12-24T12:08:23.907Z,4.83
2018-12-24T12:11:11.941Z,4.03
2018-12-24T12:13:59.945Z,4.23
2018-12-24T12:16:47.985Z,4.90
2018-12-24T12:19:36.011Z,5.40
2018-12-24T12:22:24.052Z,5.90
2018-12-24T12:25:12.027Z,4.13
2018-12-24T12:27:52.639Z,4.80
2018-12-24T12:30:33.643Z,4.33
2018-12-24T12:33:14.304Z,4.43
2018-12-24T12:35:54.797Z,4.37
2018-12-24T12:38:38.757Z,4.23
2018-12-24T12:41:19.194Z,5.80
2018-12-24T12:44:00.216Z,4.47
2018-12-24T12:46:41.222Z,5.50
2018-12-24T12:49:21.828Z,6.60
2018-12-24T12:52:02.878Z,4.55
2018-12-24T12:54:43.871Z,5.10
2018-12-24T12:57:24.892Z,4.50
2018-12-24T13:00:05.808Z,5.57
2018-12-24T13:02:46.524Z,5.43
2018-12-24T13:05:28.309Z,4.97
2018-12-24T13:08:09.200Z,6.00
2018-12-24T13:10:50.140Z,7.43
2018-12-24T13:13:36.761Z,6.33
2018-12-24T13:16:13.761Z,5.60
2018-12-24T13:18:55.139Z,6.00
2018-12-24T13:21:35.775Z,6.47
2018-12-24T13:24:17.076Z,4.87
2018-12-24T13:26:57.839Z,5.13
2018-12-24T13:29:38.937Z,9.30
2018-12-24T13:32:19.294Z,5.23
2018-12-24T13:35:00.312Z,5.30
2018-12-24T13:37:42.262Z,5.53
2018-12-24T13:40:23.716Z,5.23
2018-12-24T13:43:04.632Z,6.50
2018-12-24T13:45:45.677Z,4.97
2018-12-24T13:48:26.938Z,6.27
2018-12-24T13:51:07.820Z,5.77
2018-12-24T13:53:48.379Z,6.50
2018-12-24T13:56:29.452Z,5.67
2018-12-24T13:59:45.374Z,5.83
2018-12-24T14:02:26.167Z,6.33
2018-12-24T14:05:07.318Z,5.37
2018-12-24T14:07:48.258Z,8.17
2018-12-24T14:10:29.216Z,5.83
2018-12-24T14:13:10.016Z,6.92
2018-12-24T14:15:50.445Z,7.03
2018-12-24T14:18:30.978Z,5.30
2018-12-24T14:21:09.858Z,7.40
2018-12-24T14:23:57.682Z,7.83
2018-12-24T14:26:45.611Z,7.30
2018-12-24T14:29:33.591Z,6.03
2018-12-24T14:32:21.505Z,6.60
2018-12-24T14:35:09.391Z,6.60
2018-12-24T14:37:57.214Z,6.40
2018-12-24T14:40:45.086Z,5.90
2018-12-24T14:43:44.897Z,6.63
2018-12-24T14:46:25.699Z,6.47
2018-12-24T14:49:12.050Z,7.70
2018-12-24T14:51:59.912Z,7.73
2018-12-24T14:54:47.802Z,8.00
2018-12-24T14:57:35.599Z,8.03
2018-12-24T15:00:23.453Z,7.97
2018-12-24T15:03:11.339Z,8.53
2018-12-24T15:05:59.194Z,8.33
2018-12-24T15:08:47.104Z,8.63
2018-12-24T15:11:34.989Z,8.33
2018-12-24T15:14:22.810Z,10.13
2018-12-24T15:17:10.869Z,10.57
2018-12-24T15:20:02.035Z,10.10
2018-12-24T15:22:49.988Z,8.67
2018-12-24T15:25:30.951Z,8.47
2018-12-24T15:28:11.778Z,10.37
2018-12-24T15:30:52.787Z,9.60
2018-12-24T15:33:31.778Z,9.63
2018-12-24T15:36:19.664Z,8.67
2018-12-24T15:39:07.604Z,11.07
2018-12-24T15:41:55.500Z,11.47
2018-12-24T15:44:43.391Z,17.50
2018-12-24T15:47:31.218Z,10.00
2018-12-24T15:50:19.131Z,12.20
2018-12-24T15:53:06.930Z,10.00
2018-12-24T15:55:54.781Z,14.03
2018-12-24T15:58:42.659Z,15.90
2018-12-24T16:01:30.474Z,11.50
2018-12-24T16:04:18.308Z,12.17
2018-12-24T16:07:06.247Z,10.63
2018-12-24T16:09:54.150Z,14.27
2018-12-24T16:12:34.860Z,14.60
2018-12-24T16:15:16.083Z,13.93
2018-12-24T16:17:57.221Z,13.70
2018-12-24T16:20:38.013Z,12.53
2018-12-24T16:23:19.292Z,12.33
2018-12-24T16:26:00.385Z,11.47
2018-12-24T16:28:41.630Z,11.20
2018-12-24T16:31:22.402Z,9.67
2018-12-24T16:34:03.625Z,10.73
2018-12-24T16:36:44.637Z,10.27
2018-12-24T16:39:25.071Z,13.30
2018-12-24T16:42:06.123Z,12.07
2018-12-24T16:44:46.594Z,10.70
2018-12-24T16:47:27.367Z,10.53
2018-12-24T16:50:09.107Z,12.67
2018-12-24T16:52:49.986Z,12.03
2018-12-24T16:55:30.538Z,15.77
2018-12-24T16:58:11.409Z,12.10
2018-12-24T17:00:52.278Z,10.10
2018-12-24T17:03:32.879Z,13.63
2018-12-24T17:06:13.984Z,13.10
2018-12-24T17:08:54.278Z,12.80
2018-12-24T17:11:34.958Z,12.00
2018-12-24T17:14:15.772Z,12.47
2018-12-24T17:16:56.339Z,14.13
2018-12-24T17:19:37.125Z,19.50
2018-12-24T17:22:17.586Z,11.13
2018-12-24T17:24:56.388Z,13.93
2018-12-24T17:27:44.296Z,12.50
2018-12-24T17:30:32.092Z,21.17
2018-12-24T17:33:19.947Z,11.73
2018-12-24T17:36:07.810Z,15.03
2018-12-24T17:38:55.670Z,13.50
2018-12-24T17:41:43.567Z,8.60
2018-12-24T17:44:31.456Z,13.83
2018-12-24T17:47:19.246Z,13.63
2018-12-24T17:50:07.258Z,17.30
2018-12-24T17:52:55.093Z,11.90
2018-12-24T17:55:42.948Z,17.37
2018-12-24T17:58:30.834Z,13.20
2018-12-24T18:01:18.825Z,10.80
2018-12-24T18:04:06.702Z,14.97
2018-12-24T18:06:54.538Z,14.00
2018-12-24T18:09:42.366Z,14.93
2018-12-24T18:12:30.228Z,17.33
2018-12-24T18:15:10.855Z,22.47
2018-12-24T18:17:52.087Z,19.93
2018-12-24T18:20:32.519Z,17.73
2018-12-24T18:23:13.643Z,15.50
2018-12-24T18:25:54.046Z,13.07
2018-12-24T18:28:35.242Z,8.47
2018-12-24T18:31:19.935Z,13.00
2018-12-24T18:33:58.235Z,13.47
2018-12-24T18:36:39.500Z,17.40
2018-12-24T18:39:20.571Z,18.30
2018-12-24T18:42:01.838Z,12.90
2018-12-24T18:44:42.584Z,12.47
2018-12-24T18:47:23.870Z,10.97
2018-12-24T18:50:02.851Z,13.10
2018-12-24T18:52:50.747Z,11.17
2018-12-24T18:55:38.679Z,15.07
2018-12-24T18:58:26.547Z,12.30
2018-12-24T19:01:14.398Z,10.73
2018-12-24T19:04:02.284Z,15.03
2018-12-24T19:06:50.330Z,10.30
2018-12-24T19:09:38.199Z,13.53
2018-12-24T19:12:26.026Z,10.40
2018-12-24T19:15:07.001Z,14.97
2018-12-24T19:17:47.631Z,10.30
2018-12-24T19:20:28.524Z,11.43
2018-12-24T19:23:09.697Z,7.10
2018-12-24T19:25:50.161Z,9.40
2018-12-24T19:28:30.667Z,13.30
2018-12-24T19:31:10.998Z,13.23
2018-12-24T19:33:52.095Z,9.37
2018-12-24T19:36:33.149Z,13.00
2018-12-24T19:39:15.095Z,10.23
2018-12-24T19:41:55.431Z,10.57
2018-12-24T19:44:36.523Z,9.30
2018-12-24T19:47:17.791Z,10.93
2018-12-24T19:49:58.137Z,12.00
2018-12-24T19:52:39.026Z,9.93
2018-12-24T19:55:20.071Z,12.63
2018-12-24T19:58:00.732Z,9.50
2018-12-24T20:00:41.422Z,10.20
2018-12-24T20:03:22.377Z,9.87
2018-12-24T20:06:03.512Z,11.10
2018-12-24T20:08:42.389Z,13.53
2018-12-24T20:11:30.283Z,8.63
2018-12-24T20:14:18.083Z,12.77
2018-12-24T20:16:58.965Z,12.60
2018-12-24T20:19:39.425Z,8.93
2018-12-24T20:22:20.534Z,14.13
2018-12-24T20:25:01.250Z,10.07
2018-12-24T20:27:42.489Z,9.30
2018-12-24T20:30:22.905Z,14.07
2018-12-24T20:33:03.800Z,13.73
2018-12-24T20:35:44.413Z,13.47
2018-12-24T20:38:25.404Z,15.60
2018-12-24T20:41:05.763Z,13.13
2018-12-24T20:43:46.612Z,11.73
2018-12-24T20:46:27.504Z,11.73
2018-12-24T20:49:08.525Z,12.10
2018-12-24T20:51:47.333Z,10.47
2018-12-24T20:54:35.161Z,12.37
2018-12-24T20:57:22.988Z,10.90
2018-12-24T21:00:10.921Z,9.53
2018-12-24T21:02:58.811Z,9.87
2018-12-24T21:05:46.745Z,11.47
2018-12-24T21:08:34.635Z,8.57
2018-12-24T21:11:22.570Z,14.03
2018-12-24T21:14:10.474Z,12.73
2018-12-24T21:16:50.886Z,13.10
2018-12-24T21:19:31.984Z,11.70
2018-12-24T21:22:13.249Z,9.40
2018-12-24T21:24:54.830Z,10.43
2018-12-24T21:27:35.583Z,12.07
2018-12-24T21:30:16.271Z,11.23
2018-12-24T21:32:56.734Z,7.53
2018-12-24T21:35:37.721Z,10.37
2018-12-24T21:38:18.140Z,11.43
2018-12-24T21:40:59.136Z,10.13
2018-12-24T21:43:39.458Z,8.30
2018-12-24T21:46:20.312Z,8.53
2018-12-24T21:49:01.499Z,8.17
2018-12-24T21:51:42.438Z,8.40
2018-12-24T21:54:23.474Z,7.73
2018-12-24T21:57:04.697Z,9.73
2018-12-24T21:59:45.322Z,9.70
2018-12-24T22:02:25.929Z,10.23
2018-12-24T22:05:07.094Z,10.20
2018-12-24T22:07:47.833Z,7.23
2018-12-24T22:10:28.639Z,10.13
2018-12-24T22:13:09.325Z,8.67
2018-12-24T22:15:48.310Z,13.10
2018-12-24T22:18:32.319Z,15.33
2018-12-24T22:21:10.978Z,13.10
2018-12-24T22:23:52.337Z,13.32
2018-12-24T22:26:33.386Z,10.13
2018-12-24T22:29:14.363Z,12.53
2018-12-24T22:31:55.598Z,14.50
2018-12-24T22:34:36.371Z,14.07
2018-12-24T22:37:15.255Z,6.77
2018-12-24T22:40:03.635Z,6.37
2018-12-24T22:42:51.570Z,15.23
2018-12-24T22:48:46.354Z,9.67
2018-12-24T22:51:34.234Z,9.67
2018-12-24T22:54:22.084Z,13.07
2018-12-24T22:57:09.985Z,9.87
2018-12-24T22:59:57.891Z,10.17
2018-12-24T23:02:45.688Z,10.53
2018-12-24T23:05:33.507Z,6.80
2018-12-24T23:08:21.403Z,14.07
2018-12-24T23:11:09.306Z,9.23
2018-12-24T23:13:57.177Z,7.90
2018-12-24T23:16:45.100Z,10.60
2018-12-24T23:19:25.400Z,7.47
2018-12-24T23:22:06.269Z,9.27
2018-12-24T23:24:45.097Z,10.67
2018-12-24T23:27:33.002Z,8.27
2018-12-24T23:30:20.819Z,8.63
2018-12-24T23:33:08.664Z,7.30
2018-12-24T23:35:56.575Z,6.77
2018-12-24T23:38:44.479Z,9.50
2018-12-24T23:41:13.389Z,6.23
2018-12-24T23:44:01.277Z,7.13
2018-12-24T23:46:49.097Z,7.90
2018-12-24T23:49:37.020Z,8.63
2018-12-24T23:52:24.923Z,9.23
2018-12-24T23:55:12.833Z,7.27
2018-12-24T23:58:00.732Z,8.83
